Captain Michael — SVBF2 — position and weather

sailwx.info

Track history (hours):
 
Tides and Currents Weather Stations Pressure Air Temp Water Temp Dewpoint Dewpoint Depression Visibility Wind Speed Wind Dir Waves Ship Positions

Captain Michael

Last reported at 2018-Feb-16 18:37 UTC. Time now 2018-Feb-19 11:52 UTC.
Position N 01°15' E 103°25'.

Length 274 m; draft 9.3 m.

Type: Tanker. MMSI: 241080000.

Date/timePositionNaut miles runAvg speedWind from/ knotsBaromVisibWave heightAir tempDewpointWater temp
2018-Feb-16 18:37N 01°15' E 103°25'1 7.2
2018-Feb-16 18:30N 01°14' E 103°26'4 7.5
2018-Feb-16 17:59N 01°13' E 103°30'4 8.1
2018-Feb-16 17:30N 01°12' E 103°33'4 7.7
2018-Feb-16 16:57N 01°11' E 103°37'4 7.6
2018-Feb-16 16:30N 01°10' E 103°41'4 7.7
2018-Feb-16 15:59N 01°08' E 103°44'4 8.8
2018-Feb-16 15:30N 01°10' E 103°48'5 9.0
2018-Feb-16 14:55N 01°13' E 103°53'3 7.6
2018-Feb-16 14:29N 01°14' E 103°56'2 2.9
2018-Feb-16 13:54N 01°16' E 103°55'0 0.0
2018-Feb-16 09:48N 01°16' E 103°55'0 0.0
2018-Feb-16 09:09N 01°16' E 103°55'0 0.0
2018-Feb-16 08:48N 01°16' E 103°55'0 0.0
2018-Feb-16 08:30N 01°16' E 103°55'0 0.0
2018-Feb-16 08:00N 01°16' E 103°55'0 0.0
2018-Feb-16 07:30N 01°16' E 103°55'0 0.0
2018-Feb-16 06:54N 01°16' E 103°55'0 0.1
2018-Feb-16 02:42N 01°16' E 103°55'0 0.0
2018-Feb-16 02:30N 01°16' E 103°55'0 0.0
2018-Feb-16 02:00N 01°16' E 103°55'0 0.0
2018-Feb-16 01:30N 01°16' E 103°55'0 0.0
2018-Feb-16 01:00N 01°16' E 103°55'0 0.0
2018-Feb-16 00:27N 01°16' E 103°55'0 0.0
2018-Feb-15 23:57N 01°16' E 103°55'0 0.0
2018-Feb-15 23:30N 01°16' E 103°55'0 0.1
2018-Feb-15 22:54N 01°16' E 103°55'0 0.0
2018-Feb-15 22:24N 01°16' E 103°55'0 0.0
2018-Feb-15 22:00N 01°16' E 103°55'0 0.1
2018-Feb-15 21:27N 01°16' E 103°55'0 0.0
2018-Feb-15 21:00N 01°16' E 103°55'0 0.0
2018-Feb-15 20:00N 01°16' E 103°55'0 0.0
2018-Feb-15 19:30N 01°16' E 103°55'0 0.0
2018-Feb-15 19:00N 01°16' E 103°55'0 0.0
2018-Feb-15 18:30N 01°16' E 103°55'0 0.0
2018-Feb-15 18:00N 01°16' E 103°55'0 0.0
2018-Feb-15 16:54N 01°16' E 103°55'0 0.0
2018-Feb-15 16:30N 01°16' E 103°55'0 0.0
2018-Feb-15 15:42N 01°16' E 103°55'0 0.0
2018-Feb-15 15:30N 01°16' E 103°55'0 0.1
2018-Feb-15 14:57N 01°16' E 103°55'0 0.8
2018-Feb-15 14:30N 01°15' E 103°55'1 2.7
2018-Feb-15 14:00N 01°14' E 103°55'4 8.6
2018-Feb-15 13:30N 01°16' E 103°59'2 2.9
2018-Feb-15 12:57N 01°16' E 104°00'2 3.5
2018-Feb-15 12:24N 01°16' E 104°02'3 4.1
2018-Feb-15 11:44N 01°16' E 104°05'1 4.1
2018-Feb-15 11:28N 01°16' E 104°06'3 4.8
2018-Feb-15 10:53N 01°17' E 104°09'7 4.8
2018-Feb-15 09:21N 01°18' E 104°16'  
Track history (hours):
 
Tides and Currents Weather Stations Pressure Air Temp Water Temp Dewpoint Dewpoint Depression Visibility Wind Speed Wind Dir Waves Ship Positions

Captain Michael

Last reported at 2018-Feb-16 18:37 UTC. Time now 2018-Feb-19 11:52 UTC.
Position N 01°15' E 103°25'.

Length 274 m; draft 9.3 m.

Type: Tanker. MMSI: 241080000.

Date/timePositionNaut miles runAvg speedWind from/ knotsBaromVisibWave heightAir tempDewpointWater temp
2018-Feb-16 18:37N 01°15' E 103°25'1 7.2
2018-Feb-16 18:30N 01°14' E 103°26'4 7.5
2018-Feb-16 17:59N 01°13' E 103°30'4 8.1
2018-Feb-16 17:30N 01°12' E 103°33'4 7.7
2018-Feb-16 16:57N 01°11' E 103°37'4 7.6
2018-Feb-16 16:30N 01°10' E 103°41'4 7.7
2018-Feb-16 15:59N 01°08' E 103°44'4 8.8
2018-Feb-16 15:30N 01°10' E 103°48'5 9.0
2018-Feb-16 14:55N 01°13' E 103°53'3 7.6
2018-Feb-16 14:29N 01°14' E 103°56'2 2.9
2018-Feb-16 13:54N 01°16' E 103°55'0 0.0
2018-Feb-16 09:48N 01°16' E 103°55'0 0.0
2018-Feb-16 09:09N 01°16' E 103°55'0 0.0
2018-Feb-16 08:48N 01°16' E 103°55'0 0.0
2018-Feb-16 08:30N 01°16' E 103°55'0 0.0
2018-Feb-16 08:00N 01°16' E 103°55'0 0.0
2018-Feb-16 07:30N 01°16' E 103°55'0 0.0
2018-Feb-16 06:54N 01°16' E 103°55'0 0.1
2018-Feb-16 02:42N 01°16' E 103°55'0 0.0
2018-Feb-16 02:30N 01°16' E 103°55'0 0.0
2018-Feb-16 02:00N 01°16' E 103°55'0 0.0
2018-Feb-16 01:30N 01°16' E 103°55'0 0.0
2018-Feb-16 01:00N 01°16' E 103°55'0 0.0
2018-Feb-16 00:27N 01°16' E 103°55'0 0.0
2018-Feb-15 23:57N 01°16' E 103°55'0 0.0
2018-Feb-15 23:30N 01°16' E 103°55'0 0.1
2018-Feb-15 22:54N 01°16' E 103°55'0 0.0
2018-Feb-15 22:24N 01°16' E 103°55'0 0.0
2018-Feb-15 22:00N 01°16' E 103°55'0 0.1
2018-Feb-15 21:27N 01°16' E 103°55'0 0.0
2018-Feb-15 21:00N 01°16' E 103°55'0 0.0
2018-Feb-15 20:00N 01°16' E 103°55'0 0.0
2018-Feb-15 19:30N 01°16' E 103°55'0 0.0
2018-Feb-15 19:00N 01°16' E 103°55'0 0.0
2018-Feb-15 18:30N 01°16' E 103°55'0 0.0
2018-Feb-15 18:00N 01°16' E 103°55'0 0.0
2018-Feb-15 16:54N 01°16' E 103°55'0 0.0
2018-Feb-15 16:30N 01°16' E 103°55'0 0.0
2018-Feb-15 15:42N 01°16' E 103°55'0 0.0
2018-Feb-15 15:30N 01°16' E 103°55'0 0.1
2018-Feb-15 14:57N 01°16' E 103°55'0 0.8
2018-Feb-15 14:30N 01°15' E 103°55'1 2.7
2018-Feb-15 14:00N 01°14' E 103°55'4 8.6
2018-Feb-15 13:30N 01°16' E 103°59'2 2.9
2018-Feb-15 12:57N 01°16' E 104°00'2 3.5
2018-Feb-15 12:24N 01°16' E 104°02'3 4.1
2018-Feb-15 11:44N 01°16' E 104°05'1 4.1
2018-Feb-15 11:28N 01°16' E 104°06'3 4.8
2018-Feb-15 10:53N 01°17' E 104°09'7 4.8
2018-Feb-15 09:21N 01°18' E 104°16'  

Dump ship's entire track history